Weather History for KBIE - June, 2013

Change the Weather History Date:

Saturday, June 22, 2013

  Actual Average Record
Temperature  
Mean Temperature 83 °F -  
Max Temperature 91 °F 86 °F 101 °F (1974)
Min Temperature 75 °F 60 °F 51 °F (2001)
Cooling Degree Days 18    
Growing Degree Days 33 (Base 50)    
Moisture  
Dew Point 68 °F    
Average Humidity 61    
Maximum Humidity 88    
Minimum Humidity 38    
Precipitation  
Precipitation 0.00 in - - ()
Sea Level Pressure  
Sea Level Pressure 29.87 in    
Wind  
Wind Speed 14 mph (SSE)    
Max Wind Speed 31 mph    
Max Gust Speed 39 mph    
Visibility 9 miles    
Events Thunderstorm    
Averages and records for this station are not official NWS values.
T = Trace of Precipitation, MM = Missing Value Source: NWS Daily Summary

Daily Weather History Graph

Daily Weather History Graph

Search for Another Location

Airport or City:

Trip Planner

Search our weather history database for the weather conditions in past years. The results will help you decide how hot, cold, wet, or windy it might be!

Date:

Astronomy

Jun. 22, 2013 Rise Set
Actual Time 5:57 AM CDT 9:00 PM CDT
Civil Twilight 5:24 AM CDT 9:33 PM CDT
Nautical Twilight 4:42 AM CDT 10:15 PM CDT
Astronomical Twilight 3:52 AM CDT 11:05 PM CDT
Moon 8:16 PM CDT (6/22) 5:11 AM CDT (6/22)
Length of Visible Light 16h 09m
Length of Day
15h 02m
Waxing Gibbous, 99% of the Moon is Illuminated
Jun 22
Waxing Gibbous
Jun 23
Full
Jun 29
Last Quarter
Jul 8
New
Jul 15
First Quarter

Hourly Weather History & Observations

Time (CDT) Temp. Heat Index Dew Point Humidity Pressure Visibility Wind Dir Wind Speed Gust Speed Precip Events Conditions
12:15 AM 83.5 °F 87.7 °F 70.2 °F 64% 29.87 in 10.0 mi South 19.6 mph 26.5 mph N/A   Clear
12:35 AM 83.3 °F 87.9 °F 70.7 °F 66% 29.87 in 10.0 mi South 18.4 mph 25.3 mph N/A   Clear
12:55 AM 82.9 °F 87.7 °F 71.4 °F 68% 29.87 in 10.0 mi South 19.6 mph 26.5 mph N/A   Clear
1:15 AM 82.6 °F 87.6 °F 71.8 °F 70% 29.86 in 10.0 mi South 17.3 mph 27.6 mph N/A   Clear
1:35 AM 82.4 °F 87.2 °F 71.8 °F 70% 29.86 in 10.0 mi South 18.4 mph 26.5 mph N/A   Clear
1:55 AM 81.9 °F 86.4 °F 71.8 °F 71% 29.87 in 10.0 mi South 15.0 mph 23.0 mph N/A   Clear
2:15 AM 81.7 °F 86.0 °F 71.6 °F 71% 29.87 in 10.0 mi South 16.1 mph 23.0 mph N/A   Clear
2:35 AM 81.1 °F 85.2 °F 71.2 °F 72% 29.88 in 10.0 mi South 11.5 mph 19.6 mph N/A   Clear
2:55 AM 80.8 °F 84.6 °F 71.1 °F 72% 29.89 in 10.0 mi South 9.2 mph - N/A   Clear
3:15 AM 80.6 °F 84.2 °F 70.9 °F 72% 29.91 in 10.0 mi SW 5.8 mph - N/A   Clear
3:35 AM 79.7 °F - 71.6 °F 76% 29.94 in 10.0 mi NW 8.1 mph - N/A   Scattered Clouds
3:55 AM 79.3 °F - 71.8 °F 78% 29.93 in 10.0 mi Calm Calm - N/A   Scattered Clouds
4:15 AM 78.6 °F - 72.1 °F 80% 29.91 in 10.0 mi NE 3.5 mph - N/A   Clear
4:35 AM 78.1 °F - 72.0 °F 81% 29.89 in 10.0 mi SSE 8.1 mph - N/A   Clear
4:55 AM 78.1 °F - 71.8 °F 81% 29.88 in 10.0 mi ESE 5.8 mph - N/A   Clear
5:15 AM 77.5 °F - 71.4 °F 81% 29.90 in 10.0 mi NE 3.5 mph - N/A   Clear
5:35 AM 75.2 °F - 71.2 °F 87% 29.93 in 10.0 mi NE 4.6 mph - N/A   Clear
5:55 AM 75.2 °F - 71.2 °F 87% 29.93 in 10.0 mi ENE 5.8 mph - N/A   Clear
6:15 AM 75.4 °F - 71.2 °F 87% 29.94 in 7.0 mi NE 6.9 mph - N/A   Clear
6:35 AM 75.2 °F - 71.4 °F 88% 29.94 in 7.0 mi NE 6.9 mph - N/A   Clear
6:55 AM 76.1 °F - 71.6 °F 86% 29.95 in 7.0 mi ENE 6.9 mph - N/A   Clear
7:15 AM 76.8 °F - 72.0 °F 85% 29.94 in 7.0 mi East 5.8 mph - N/A   Clear
7:35 AM 78.1 °F - 72.5 °F 83% 29.95 in 7.0 mi NE 6.9 mph - N/A   Clear
7:55 AM 78.6 °F - 72.7 °F 82% 29.94 in 10.0 mi ENE 5.8 mph - N/A   Clear
8:15 AM 80.1 °F 83.8 °F 71.8 °F 76% 29.93 in 7.0 mi ESE 11.5 mph - N/A   Clear
8:35 AM 80.6 °F 84.2 °F 70.9 °F 72% 29.93 in 7.0 mi ESE 10.4 mph - N/A   Clear
8:55 AM 80.6 °F 84.1 °F 70.3 °F 71% 29.95 in 7.0 mi SE 3.5 mph - N/A   Mostly Cloudy
9:15 AM 80.8 °F 84.1 °F 69.8 °F 69% 29.95 in 7.0 mi Calm Calm - N/A   Overcast
9:35 AM 81.3 °F 84.8 °F 69.8 °F 68% 29.95 in 10.0 mi ENE 3.5 mph - N/A   Overcast
9:55 AM 76.6 °F - 64.0 °F 65% 29.97 in 10.0 mi NNE 17.3 mph 21.9 mph N/A   Mostly Cloudy
10:15 AM 77.4 °F - 64.2 °F 64% 29.98 in 10.0 mi NE 11.5 mph 23.0 mph N/A   Mostly Cloudy
10:35 AM 78.8 °F - 64.2 °F 61% 29.95 in 10.0 mi East 17.3 mph 21.9 mph N/A   Scattered Clouds
10:55 AM 81.3 °F 83.3 °F 65.7 °F 59% 29.95 in 10.0 mi East 9.2 mph - N/A   Clear
11:15 AM 84.0 °F 86.5 °F 66.7 °F 56% 29.95 in 10.0 mi East 10.4 mph - N/A Thunderstorm Thunderstorm
11:35 AM 83.1 °F 85.7 °F 67.1 °F 58% 29.95 in 10.0 mi SE 12.7 mph - N/A Thunderstorm Thunderstorm
11:55 AM 82.4 °F 85.0 °F 67.5 °F 60% 29.95 in 7.0 mi SSE 9.2 mph 16.1 mph N/A Thunderstorm Thunderstorm
12:15 PM 82.4 °F 85.4 °F 68.0 °F 62% 29.88 in 7.0 mi SE 23.0 mph 28.8 mph N/A Thunderstorm Thunderstorm
12:35 PM 82.2 °F 85.1 °F 68.0 °F 62% 29.85 in 7.0 mi SE 20.7 mph 28.8 mph N/A   Clear
12:55 PM 84.7 °F 86.6 °F 65.3 °F 52% 29.82 in 10.0 mi ESE 16.1 mph 35.7 mph N/A   Clear
1:15 PM 84.6 °F 87.6 °F 68.0 °F 57% 29.84 in 7.0 mi SSE 17.3 mph 26.5 mph N/A   Clear
1:35 PM 85.1 °F 88.2 °F 67.8 °F 56% 29.83 in 10.0 mi South 20.7 mph 28.8 mph N/A   Clear
1:55 PM 86.5 °F 90.0 °F 68.4 °F 54% 29.82 in 7.0 mi SSE 20.7 mph 28.8 mph N/A   Clear
2:15 PM 88.0 °F 91.8 °F 68.2 °F 52% 29.82 in 10.0 mi South 26.5 mph 32.2 mph N/A   Clear
2:35 PM 88.7 °F 92.2 °F 67.8 °F 50% 29.83 in 10.0 mi South 28.8 mph 38.0 mph N/A   Clear
2:55 PM 90.3 °F 93.9 °F 67.3 °F 47% 29.82 in 7.0 mi South 28.8 mph 39.1 mph N/A   Clear
3:15 PM 90.1 °F 92.7 °F 66.4 °F 45% 29.81 in 10.0 mi SSE 23.0 mph 38.0 mph N/A   Clear
3:35 PM 90.7 °F 93.2 °F 66.0 °F 44% 29.80 in 10.0 mi South 24.2 mph 36.8 mph N/A   Clear
3:55 PM 91.9 °F 93.3 °F 63.7 °F 39% 29.79 in 10.0 mi South 31.1 mph 39.1 mph N/A   Clear
4:15 PM 91.8 °F 92.6 °F 63.1 °F 38% 29.79 in 10.0 mi South 27.6 mph 34.5 mph N/A   Clear
4:35 PM 91.4 °F 92.4 °F 63.0 °F 39% 29.80 in 10.0 mi South 28.8 mph 35.7 mph N/A   Clear
4:55 PM 91.9 °F 93.3 °F 63.5 °F 39% 29.80 in 10.0 mi South 21.9 mph 29.9 mph N/A   Clear
5:15 PM 91.9 °F 92.9 °F 63.0 °F 38% 29.80 in 10.0 mi South 17.3 mph 32.2 mph N/A   Clear
5:35 PM 91.4 °F 93.2 °F 64.4 °F 41% 29.80 in 10.0 mi South 20.7 mph 31.1 mph N/A   Clear
5:55 PM 90.7 °F 92.4 °F 64.8 °F 42% 29.80 in 7.0 mi South 19.6 mph 27.6 mph N/A   Clear
6:15 PM 90.1 °F 92.3 °F 65.8 °F 44% 29.79 in 10.0 mi South 17.3 mph 32.2 mph N/A   Clear
6:35 PM 89.6 °F 92.2 °F 66.6 °F 46% 29.79 in 10.0 mi South 16.1 mph 27.6 mph N/A   Clear
6:55 PM 89.4 °F 92.3 °F 66.6 °F 47% 29.79 in 7.0 mi South 16.1 mph 25.3 mph N/A   Clear
7:15 PM 88.7 °F 91.9 °F 67.1 °F 49% 29.78 in 7.0 mi SSE 16.1 mph 21.9 mph N/A   Clear
7:35 PM 88.0 °F 91.0 °F 67.1 °F 50% 29.78 in 7.0 mi SSE 16.1 mph 23.0 mph N/A   Clear
7:55 PM 87.1 °F 89.9 °F 66.7 °F 51% 29.79 in 10.0 mi SSE 17.3 mph 24.2 mph N/A   Clear
8:15 PM 86.4 °F 88.7 °F 66.6 °F 51% 29.80 in 7.0 mi SSE 16.1 mph 23.0 mph N/A   Clear
8:35 PM 86.0 °F 88.5 °F 66.4 °F 52% 29.80 in 7.0 mi SSE 18.4 mph 24.2 mph N/A   Clear
8:55 PM 85.1 °F 87.9 °F 67.1 °F 55% 29.80 in 7.0 mi SSE 13.8 mph - N/A   Clear
9:15 PM 84.4 °F 86.8 °F 66.6 °F 55% 29.80 in 10.0 mi SSE 17.3 mph 23.0 mph N/A   Clear
9:35 PM 83.8 °F 86.0 °F 66.0 °F 55% 29.81 in 10.0 mi SSE 15.0 mph 23.0 mph N/A   Clear
9:55 PM 83.3 °F 85.1 °F 64.9 °F 54% 29.82 in 10.0 mi SSE 16.1 mph 24.2 mph N/A   Clear
10:15 PM 82.9 °F 84.4 °F 64.0 °F 53% 29.82 in 10.0 mi SSE 19.6 mph 23.0 mph N/A   Clear
10:35 PM 82.8 °F 84.0 °F 63.5 °F 52% 29.83 in 10.0 mi SSE 15.0 mph 24.2 mph N/A   Clear
10:55 PM 82.0 °F 83.3 °F 63.3 °F 53% 29.84 in 10.0 mi SSE 18.4 mph 23.0 mph N/A   Clear
11:15 PM 82.0 °F 83.3 °F 63.5 °F 53% 29.84 in 10.0 mi SSE 15.0 mph 27.6 mph N/A   Clear
11:35 PM 81.5 °F 82.8 °F 63.5 °F 54% 29.84 in 10.0 mi SSE 13.8 mph 24.2 mph N/A   Clear
11:55 PM 81.0 °F 82.5 °F 64.0 °F 56% 29.84 in 10.0 mi SSE 15.0 mph 24.2 mph N/A   Clear